Good Samaritan Village, Nebraska
Current Conditions -  °F | °C
As of 5:53 PM on Tuesday 25 Nov 2014 (Local Time) from KHSI Reporting Station
Overcast Overcast  
Wind Chill: 40°   Ceiling: 8500
Heat Index: 45°   Visibility: 10mi
Dew Point: 19°   Wind: 10mph
Humidity: 36%   Direction: 210°SSW
Pressure: 29.86"   Gusts: NA
Location:  40.5551°N, 98.369°W
Report Text: KHSI 252353Z AUTO 21009KT 10SM FEW065 OVC085 07/M07 A2986 RMK AO2 SLP128 T00721072 10078 20056 58007
Loading
Personal Weather Stations






























Interactive Weather Map New forecast layout! Learn more

10-Day Weather Forecast

Advertisements
Track Severe Weather on mobile